Time;durP1;ratioP1;P1;durP2;ratioP2;P2;SDS_P1;SDS_P2;PMS_P1;PMS_P2;Temp;Humidity;BMP_temperature;BMP_pressure;BME280_temperature;BME280_humidity;BME280_pressure;Samples;Min_cycle;Max_cycle;Signal;HPM_P1;HPM_P2
2023/04/21 00:03:26;;;;;;;1.52;0.93;;;;;;;18.42;32.19;101319.59;16142733;19;129692;-41
2023/04/21 00:08:49;;;;;;;2.60;0.88;;;;;;;18.39;32.18;101306.22;16140514;19;129483;-41
2023/04/21 00:14:11;;;;;;;1.23;0.80;;;;;;;18.38;32.54;101298.13;16142972;19;129571;-40
2023/04/21 00:19:34;;;;;;;0.90;0.70;;;;;;;18.36;32.60;101292.81;16122417;19;130723;-41
2023/04/21 00:24:55;;;;;;;1.00;0.90;;;;;;;18.33;32.12;101287.75;16130148;19;129486;-41
2023/04/21 00:30:17;;;;;;;1.48;1.17;;;;;;;18.33;32.44;101298.84;16122825;19;129998;-48
2023/04/21 00:35:39;;;;;;;4.35;1.27;;;;;;;18.29;32.16;101286.53;16127514;19;129657;-41
2023/04/21 00:41:01;;;;;;;1.45;1.35;;;;;;;18.28;32.16;101293.13;16131835;19;130571;-42
2023/04/21 00:46:23;;;;;;;1.52;1.15;;;;;;;18.25;32.39;101286.16;16128158;19;130913;-40
2023/04/21 00:51:45;;;;;;;2.35;1.40;;;;;;;18.26;32.52;101286.97;16125937;19;134220;-40
2023/04/21 00:57:09;;;;;;;1.60;1.15;;;;;;;18.25;32.25;101285.28;16125656;19;129835;-41
2023/04/21 01:02:35;;;;;;;1.13;1.00;;;;;;;18.22;32.17;101280.22;16126328;19;131248;-40
2023/04/21 01:07:57;;;;;;;2.20;1.40;;;;;;;18.19;32.62;101278.78;16124162;19;129396;-41
2023/04/21 01:13:20;;;;;;;1.05;1.02;;;;;;;18.17;32.23;101272.63;16120738;19;129244;-41
2023/04/21 01:18:44;;;;;;;1.95;1.40;;;;;;;18.15;32.55;101267.31;16121378;19;131297;-43
2023/04/21 01:24:06;;;;;;;1.92;1.20;;;;;;;18.14;32.72;101262.03;16123572;19;129288;-42
2023/04/21 01:29:32;;;;;;;1.60;1.20;;;;;;;18.13;32.71;101260.34;16116153;19;131030;-41
2023/04/21 01:34:55;;;;;;;1.63;1.50;;;;;;;18.11;32.72;101257.78;16122689;19;130144;-41
2023/04/21 01:40:17;;;;;;;1.20;1.10;;;;;;;18.10;32.43;101260.81;16121825;19;128848;-40
2023/04/21 01:45:39;;;;;;;1.85;1.40;;;;;;;18.09;32.62;101268.25;16122243;19;130323;-40
2023/04/21 01:51:01;;;;;;;1.13;1.02;;;;;;;18.08;32.52;101252.75;16122186;19;130152;-40
2023/04/21 01:56:22;;;;;;;1.50;1.40;;;;;;;18.06;32.73;101254.91;16122800;19;128987;-40
2023/04/21 02:01:44;;;;;;;1.58;1.48;;;;;;;18.06;32.44;101257.66;16121810;19;130008;-41
2023/04/21 02:07:06;;;;;;;1.45;1.30;;;;;;;18.04;32.87;101251.50;16121365;19;130073;-41
2023/04/21 02:12:28;;;;;;;1.90;1.70;;;;;;;18.03;32.77;101252.59;16117651;19;129911;-43
2023/04/21 02:17:50;;;;;;;1.30;1.08;;;;;;;18.02;32.73;101252.84;16118015;19;129247;-40
2023/04/21 02:23:12;;;;;;;1.20;1.10;;;;;;;18.03;32.60;101257.28;16118050;19;129302;-40
2023/04/21 02:28:34;;;;;;;1.13;1.00;;;;;;;17.99;32.74;101238.38;16118706;19;130156;-41
2023/04/21 02:33:56;;;;;;;0.80;0.80;;;;;;;17.99;32.48;101243.06;16118440;19;130677;-41
2023/04/21 02:39:17;;;;;;;1.67;0.98;;;;;;;17.99;32.55;101230.06;16112982;19;129515;-40
2023/04/21 02:44:41;;;;;;;1.52;0.90;;;;;;;17.97;32.55;101221.16;16113482;19;133051;-40
2023/04/21 02:50:03;;;;;;;1.13;1.00;;;;;;;17.97;32.61;101206.47;16117969;19;129373;-40
2023/04/21 02:55:25;;;;;;;2.22;1.50;;;;;;;17.96;32.78;101204.78;16119231;19;130245;-41
2023/04/21 03:00:47;;;;;;;1.13;1.02;;;;;;;17.96;32.72;101199.25;16109944;19;129666;-40
2023/04/21 03:06:09;;;;;;;2.25;1.27;;;;;;;17.95;32.64;101197.56;16114528;19;129447;-40
2023/04/21 03:11:31;;;;;;;1.55;1.42;;;;;;;17.92;32.82;101206.31;16112719;19;130440;-40
2023/04/21 03:16:53;;;;;;;1.10;1.00;;;;;;;17.91;33.01;101196.34;16115646;19;129922;-51
2023/04/21 03:22:15;;;;;;;1.10;1.00;;;;;;;17.90;32.69;101201.03;16116923;19;129172;-40
2023/04/21 03:27:37;;;;;;;1.15;1.05;;;;;;;17.89;33.03;101202.13;16116923;19;131195;-40
2023/04/21 03:32:59;;;;;;;1.70;1.10;;;;;;;17.88;32.76;101202.34;16116436;19;131410;-41
2023/04/21 03:38:21;;;;;;;1.10;1.00;;;;;;;17.88;32.79;101191.25;16115107;19;129672;-40
2023/04/21 03:43:43;;;;;;;1.00;0.80;;;;;;;17.87;32.84;101204.25;16116276;19;129440;-40
2023/04/21 03:49:05;;;;;;;1.10;1.00;;;;;;;17.87;32.69;101195.09;16117673;19;129477;-40
2023/04/21 03:54:27;;;;;;;1.30;1.20;;;;;;;17.83;32.83;101184.53;16125357;19;129655;-41
2023/04/21 03:59:49;;;;;;;1.52;1.30;;;;;;;17.83;33.19;101179.00;16130395;19;129615;-43
2023/04/21 04:05:11;;;;;;;1.50;1.40;;;;;;;17.83;33.17;101173.44;16131313;19;130559;-41
2023/04/21 04:10:33;;;;;;;1.80;1.70;;;;;;;17.81;32.86;101161.78;16128441;19;129666;-41
2023/04/21 04:15:55;;;;;;;1.90;1.50;;;;;;;17.80;32.72;101157.31;16129086;19;129319;-40
2023/04/21 04:21:16;;;;;;;2.03;1.65;;;;;;;17.79;32.78;101155.63;16127773;19;130639;-41
2023/04/21 04:26:38;;;;;;;1.95;1.50;;;;;;;17.79;32.77;101160.28;16127556;19;129519;-40
2023/04/21 04:32:02;;;;;;;1.85;1.55;;;;;;;17.78;32.79;101158.63;16125849;19;129717;-40
2023/04/21 04:37:25;;;;;;;1.38;1.23;;;;;;;17.77;33.28;101165.25;16128399;19;129989;-41
2023/04/21 04:42:47;;;;;;;1.95;1.20;;;;;;;17.77;33.07;101174.38;16125771;19;130280;-41
2023/04/21 04:48:10;;;;;;;1.10;1.00;;;;;;;17.76;32.85;101169.09;16125876;19;129562;-41
2023/04/21 04:53:31;;;;;;;1.08;0.98;;;;;;;17.75;33.19;101187.59;16124159;19;129413;-40
2023/04/21 04:58:53;;;;;;;2.55;1.10;;;;;;;17.74;33.05;101188.69;16126229;19;129374;-41
2023/04/21 05:04:16;;;;;;;1.20;1.10;;;;;;;17.74;33.18;101191.44;16126188;19;131786;-39
2023/04/21 05:09:38;;;;;;;1.98;1.02;;;;;;;17.86;33.32;101188.75;16122942;19;129453;-42
2023/04/21 05:15:00;;;;;;;1.40;1.23;;;;;;;18.31;32.56;101198.50;16124106;19;134629;-40
2023/04/21 05:20:22;;;;;;;3.60;2.13;;;;;;;18.81;32.03;101196.44;16123518;19;129836;-41
2023/04/21 05:25:44;;;;;;;8.45;1.85;;;;;;;19.11;32.01;101200.97;16122019;19;130135;-42
2023/04/21 05:31:05;;;;;;;9.30;2.33;;;;;;;19.26;31.52;101201.34;16121192;19;129944;-41
2023/04/21 05:36:29;;;;;;;6.80;1.85;;;;;;;19.36;31.89;101206.28;16122521;19;129840;-43
2023/04/21 05:41:51;;;;;;;3.47;2.17;;;;;;;19.37;31.85;101208.81;16120942;19;130146;-41
2023/04/21 05:47:12;;;;;;;4.28;2.13;;;;;;;19.34;31.68;101209.28;16119618;19;131824;-43
2023/04/21 05:52:36;;;;;;;14.18;2.97;;;;;;;19.31;32.23;101207.03;16120008;19;130390;-44
2023/04/21 05:57:57;;;;;;;9.23;3.22;;;;;;;19.29;31.98;101205.56;16118967;19;130025;-42
2023/04/21 06:03:19;;;;;;;5.05;3.30;;;;;;;19.24;32.40;101203.53;16120832;19;131523;-41
2023/04/21 06:08:41;;;;;;;6.05;3.10;;;;;;;19.20;32.28;101207.84;16118351;19;130897;-45
2023/04/21 06:14:03;;;;;;;7.13;3.13;;;;;;;19.14;32.80;101208.81;16119934;19;129604;-42
2023/04/21 06:19:25;;;;;;;6.53;3.40;;;;;;;19.08;32.51;101205.91;16120833;19;134001;-42
2023/04/21 06:24:47;;;;;;;4.97;3.60;;;;;;;19.06;32.56;101202.56;16120617;19;129161;-44
2023/04/21 06:30:09;;;;;;;6.40;3.45;;;;;;;19.05;32.74;101200.88;16120925;19;129782;-44
2023/04/21 06:35:31;;;;;;;8.00;3.88;;;;;;;19.05;32.71;101198.09;16119818;19;130955;-42
2023/04/21 06:40:53;;;;;;;7.32;4.00;;;;;;;19.05;33.21;101198.09;16115799;19;129054;-41
2023/04/21 06:46:15;;;;;;;6.40;4.40;;;;;;;19.08;33.12;101205.09;16120274;19;130102;-44
2023/04/21 06:51:38;;;;;;;4.43;3.40;;;;;;;19.13;33.30;101207.97;16119090;19;129433;-42
2023/04/21 06:57:00;;;;;;;5.15;3.53;;;;;;;19.24;33.33;101214.63;16120046;19;129165;-39
2023/04/21 07:02:21;;;;;;;12.88;3.95;;;;;;;19.41;32.74;101211.94;16117902;19;129477;-40
2023/04/21 07:07:43;;;;;;;8.23;3.13;;;;;;;19.73;32.50;101211.50;16117580;19;129793;-39
2023/04/21 07:13:06;;;;;;;4.70;2.83;;;;;;;20.23;31.87;101193.28;16115891;19;130680;-40
2023/04/21 07:18:31;;;;;;;3.90;2.73;;;;;;;20.74;31.25;101206.34;16114355;19;130967;-40
2023/04/21 07:23:53;;;;;;;5.22;2.92;;;;;;;21.19;30.75;101202.56;16113308;19;130830;-41
2023/04/21 07:29:14;;;;;;;5.60;2.88;;;;;;;21.57;30.47;101193.63;16127196;19;129731;-41
2023/04/21 07:34:36;;;;;;;5.10;2.85;;;;;;;21.81;30.33;101203.38;16126958;19;129615;-40
2023/04/21 07:39:59;;;;;;;3.35;2.50;;;;;;;21.90;30.17;101202.94;16126844;19;129822;-41
2023/04/21 07:45:20;;;;;;;4.40;2.45;;;;;;;21.85;30.15;101202.84;16131833;19;130753;-41
2023/04/21 07:50:42;;;;;;;3.80;2.53;;;;;;;21.76;29.69;101208.03;16131979;19;129396;-42
2023/04/21 07:56:06;;;;;;;3.70;2.13;;;;;;;21.64;29.83;101199.84;16131835;19;129441;-41
2023/04/21 08:01:28;;;;;;;3.28;2.40;;;;;;;21.50;30.29;101211.38;16128812;19;129602;-40
2023/04/21 08:06:50;;;;;;;3.20;2.25;;;;;;;21.37;30.00;101204.22;16129252;19;129988;-42
2023/04/21 08:12:12;;;;;;;4.70;2.40;;;;;;;21.28;30.30;101202.97;16128966;19;130826;-43
2023/04/21 08:17:34;;;;;;;2.42;2.15;;;;;;;21.21;29.91;101192.03;16127850;19;129387;-40
2023/04/21 08:22:57;;;;;;;5.40;3.97;;;;;;;21.07;30.08;101190.72;16137771;19;130023;-40
2023/04/21 08:28:19;;;;;;;4.13;3.70;;;;;;;20.93;29.90;101183.84;16138842;19;131056;-40
2023/04/21 08:33:40;;;;;;;6.25;3.38;;;;;;;20.82;30.17;101177.31;16127810;19;130006;-40
2023/04/21 08:39:21;;;;;;;5.13;2.70;;;;;;;20.74;30.50;101178.53;16126776;19;129780;-40
2023/04/21 08:44:43;;;;;;;10.13;3.35;;;;;;;20.68;30.57;101188.75;16128758;19;129245;-40
2023/04/21 08:50:10;;;;;;;5.20;2.28;;;;;;;20.60;30.87;101187.22;16122839;19;131909;-41
2023/04/21 08:55:33;;;;;;;3.80;2.33;;;;;;;20.52;30.88;101179.31;16122713;19;130221;-39
2023/04/21 09:00:55;;;;;;;4.05;2.40;;;;;;;20.49;30.98;101174.25;16124221;19;129475;-40
2023/04/21 09:06:17;;;;;;;8.40;2.13;;;;;;;20.45;30.96;101170.28;16126435;19;129088;-40
2023/04/21 09:11:39;;;;;;;10.63;2.20;;;;;;;20.41;30.96;101172.75;16125883;19;132445;-39
2023/04/21 09:17:03;;;;;;;9.13;2.40;;;;;;;20.40;30.90;101170.22;16126254;19;131663;-41
2023/04/21 09:22:28;;;;;;;13.57;2.78;;;;;;;20.39;31.18;101179.66;16122727;19;128880;-39
2023/04/21 09:27:52;;;;;;;7.23;2.10;;;;;;;20.37;31.36;101170.72;16123903;19;129860;-39
2023/04/21 09:33:16;;;;;;;5.33;1.53;;;;;;;20.33;31.42;101175.09;16119877;19;130071;-39
2023/04/21 09:38:56;;;;;;;9.50;2.15;;;;;;;20.32;31.12;101174.25;16121264;19;129871;-40
2023/04/21 09:44:38;;;;;;;2.40;1.77;;;;;;;20.26;31.34;101159.44;16120278;19;130943;-39
2023/04/21 09:50:20;;;;;;;5.32;2.03;;;;;;;20.23;31.42;101159.94;16121526;19;129428;-41
2023/04/21 09:56:03;;;;;;;3.03;1.52;;;;;;;20.18;31.47;101145.13;16124151;19;129591;-40
2023/04/21 10:01:28;;;;;;;4.03;1.75;;;;;;;20.13;31.50;101148.66;16122721;19;129196;-39
2023/04/21 10:06:50;;;;;;;2.13;1.40;;;;;;;20.10;31.42;101149.16;16121282;19;131137;-39
2023/04/21 10:12:13;;;;;;;6.07;1.60;;;;;;;20.05;31.74;101130.47;16120191;19;129457;-39
2023/04/21 10:17:36;;;;;;;4.30;1.50;;;;;;;20.02;31.86;101121.81;16117012;19;131987;-40
2023/04/21 10:22:57;;;;;;;5.28;1.90;;;;;;;19.97;31.53;101122.53;16119603;19;131946;-41
2023/04/21 10:28:19;;;;;;;5.78;1.60;;;;;;;19.95;31.88;101125.53;16118620;19;129682;-41
2023/04/21 10:33:41;;;;;;;2.53;1.50;;;;;;;19.91;31.84;101113.28;16117659;19;129360;-39
2023/04/21 10:39:03;;;;;;;3.03;1.80;;;;;;;19.89;31.46;101107.13;16119198;19;131600;-41
2023/04/21 10:44:27;;;;;;;2.33;1.67;;;;;;;19.88;31.66;101101.81;16116142;19;134857;-41
2023/04/21 10:49:49;;;;;;;2.42;1.45;;;;;;;19.85;32.01;101083.72;16115927;19;129390;-47
2023/04/21 10:55:14;;;;;;;2.45;1.88;;;;;;;19.81;31.89;101080.59;16115251;19;129602;-47
2023/04/21 11:00:38;;;;;;;2.35;1.77;;;;;;;19.81;31.78;101079.78;16117292;19;130334;-46
2023/04/21 11:06:13;;;;;;;1.83;1.55;;;;;;;19.79;32.10;101063.34;16118721;19;129097;-49
2023/04/21 11:11:35;;;;;;;2.72;1.92;;;;;;;19.77;31.99;101067.47;16114632;19;129390;-44
2023/04/21 11:16:57;;;;;;;2.90;1.83;;;;;;;19.75;31.87;101064.09;16117332;19;129588;-48
2023/04/21 11:22:21;;;;;;;2.65;1.50;;;;;;;19.76;32.20;101049.13;16116843;19;130271;-48
2023/04/21 11:27:52;;;;;;;2.40;1.80;;;;;;;19.74;31.76;101031.88;16115109;19;130769;-47
2023/04/21 11:33:14;;;;;;;1.73;1.33;;;;;;;19.71;31.85;101012.94;16113782;19;129701;-47
2023/04/21 11:38:40;;;;;;;2.15;1.60;;;;;;;19.68;32.06;101015.16;16113273;19;130108;-42
2023/04/21 11:44:02;;;;;;;2.00;1.20;;;;;;;19.67;31.90;101001.53;16113515;19;129382;-48
2023/04/21 11:49:28;;;;;;;2.58;1.30;;;;;;;19.66;31.95;100988.72;16114677;19;131678;-47
2023/04/21 11:54:58;;;;;;;1.63;1.50;;;;;;;19.63;31.93;100981.75;16113354;19;128844;-45
2023/04/21 12:00:20;;;;;;;1.35;1.25;;;;;;;19.59;31.87;100980.56;16098397;19;135030;-47
2023/04/21 12:05:42;;;;;;;3.55;1.40;;;;;;;19.58;31.87;100978.88;16110009;19;130929;-47
2023/04/21 12:11:04;;;;;;;1.90;1.30;;;;;;;19.54;31.94;100980.50;16108169;19;131067;-44
2023/04/21 12:16:28;;;;;;;1.33;1.23;;;;;;;19.55;32.38;100971.09;16124658;19;129834;-42
2023/04/21 12:21:55;;;;;;;3.25;1.60;;;;;;;19.56;32.56;100978.31;16128636;19;130078;-42
2023/04/21 12:27:18;;;;;;;1.70;1.30;;;;;;;19.56;32.33;100967.22;16128703;19;130198;-43
2023/04/21 12:32:40;;;;;;;2.85;1.30;;;;;;;19.56;32.55;100961.69;16127156;19;130482;-40
2023/04/21 12:38:02;;;;;;;2.65;1.30;;;;;;;19.56;32.41;100961.69;16126480;19;129504;-39
2023/04/21 12:43:24;;;;;;;2.67;1.40;;;;;;;19.56;32.73;100977.47;16129023;19;129167;-39
2023/04/21 12:48:47;;;;;;;2.28;1.35;;;;;;;19.53;32.60;100954.66;16123866;19;129905;-42
2023/04/21 12:54:10;;;;;;;1.20;1.10;;;;;;;19.53;32.34;100962.16;16123115;19;129778;-40
2023/04/21 12:59:32;;;;;;;2.67;1.25;;;;;;;19.54;32.36;100952.75;16125847;19;129806;-39
2023/04/21 13:04:54;;;;;;;1.70;1.00;;;;;;;19.56;32.48;100950.56;16122518;19;129615;-39
2023/04/21 13:10:16;;;;;;;4.45;1.05;;;;;;;19.56;32.06;100947.78;16123954;19;129310;-39
2023/04/21 13:15:38;;;;;;;1.75;0.80;;;;;;;19.53;32.41;100942.75;16126696;19;130010;-38
2023/04/21 13:21:00;;;;;;;2.78;1.20;;;;;;;19.52;31.95;100924.41;16124311;19;130906;-41
2023/04/21 13:26:22;;;;;;;1.60;0.98;;;;;;;19.50;31.83;100912.72;16122792;19;130501;-39
2023/04/21 13:31:44;;;;;;;1.30;0.90;;;;;;;19.49;31.80;100911.91;16122413;19;129581;-40
2023/04/21 13:37:09;;;;;;;1.38;1.10;;;;;;;19.48;32.15;100907.44;16121651;19;131093;-40
2023/04/21 13:42:32;;;;;;;1.40;0.70;;;;;;;19.48;32.18;100903.81;16122797;19;130246;-40
2023/04/21 13:47:54;;;;;;;4.30;1.10;;;;;;;19.47;31.70;100889.09;16121173;19;129808;-40
2023/04/21 13:53:16;;;;;;;0.88;0.80;;;;;;;19.48;31.78;100876.06;16118696;19;130008;-41
2023/04/21 13:58:42;;;;;;;1.60;0.77;;;;;;;19.49;31.99;100869.41;16118034;19;130529;-40
2023/04/21 14:04:04;;;;;;;1.00;0.90;;;;;;;19.51;32.01;100872.78;16113303;19;129763;-41
2023/04/21 14:09:26;;;;;;;1.50;0.80;;;;;;;19.51;31.88;100868.06;16120935;19;132000;-40
2023/04/21 14:14:48;;;;;;;0.80;0.70;;;;;;;19.50;31.89;100857.22;16120224;19;130093;-41
2023/04/21 14:20:10;;;;;;;2.05;0.95;;;;;;;19.50;31.53;100865.56;16120900;19;129538;-39
2023/04/21 14:25:32;;;;;;;0.98;0.82;;;;;;;19.50;31.81;100851.69;16118510;19;129527;-40
2023/04/21 14:30:54;;;;;;;1.20;0.90;;;;;;;19.48;31.74;100838.06;16121390;19;129381;-41
2023/04/21 14:36:16;;;;;;;1.10;1.00;;;;;;;19.47;31.67;100836.38;16115917;19;130661;-40
2023/04/21 14:41:38;;;;;;;0.80;0.80;;;;;;;19.47;31.45;100832.75;16116823;19;130282;-40
2023/04/21 14:47:01;;;;;;;2.13;1.00;;;;;;;19.47;31.41;100818.88;16119114;19;132699;-40
2023/04/21 14:52:31;;;;;;;1.58;0.90;;;;;;;19.45;31.47;100809.97;16114613;19;129404;-40
2023/04/21 14:57:53;;;;;;;1.25;1.00;;;;;;;19.42;31.25;100802.19;16114688;19;129522;-40
2023/04/21 15:03:14;;;;;;;1.02;0.95;;;;;;;19.43;31.28;100795.53;16111436;19;131704;-40
2023/04/21 15:08:36;;;;;;;3.78;0.90;;;;;;;19.40;31.29;100796.03;16117405;19;129300;-41
2023/04/21 15:13:58;;;;;;;1.20;0.90;;;;;;;19.37;31.60;100777.97;16115298;19;130421;-40
2023/04/21 15:19:20;;;;;;;1.83;1.05;;;;;;;19.34;31.76;100775.72;16115961;19;130515;-42
2023/04/21 15:24:45;;;;;;;1.23;0.80;;;;;;;19.31;31.78;100765.97;16108830;19;130549;-41
2023/04/21 15:30:08;;;;;;;1.67;1.27;;;;;;;19.28;31.77;100760.94;16107483;19;130828;-43
2023/04/21 15:35:29;;;;;;;1.38;1.00;;;;;;;19.27;31.47;100753.69;16116094;19;130166;-46
2023/04/21 15:40:51;;;;;;;5.88;1.65;;;;;;;19.27;31.63;100747.28;16111622;19;129455;-46
2023/04/21 15:46:19;;;;;;;2.85;1.55;;;;;;;19.28;31.88;100738.75;16112776;19;129671;-43
2023/04/21 15:51:41;;;;;;;3.17;1.83;;;;;;;19.28;31.99;100727.66;16125698;19;129838;-43
2023/04/21 15:57:04;;;;;;;7.18;1.42;;;;;;;19.27;31.79;100702.91;16130944;19;130807;-44
2023/04/21 16:02:26;;;;;;;3.75;1.92;;;;;;;19.24;31.64;100707.06;16128968;19;129938;-43
2023/04/21 16:07:48;;;;;;;2.95;1.60;;;;;;;19.24;31.62;100715.38;16131659;19;129740;-43
2023/04/21 16:13:10;;;;;;;4.70;2.00;;;;;;;19.22;31.59;100707.31;16129900;19;131003;-44
2023/04/21 16:18:32;;;;;;;3.33;1.40;;;;;;;19.20;31.96;100714.19;16128077;19;129416;-42
2023/04/21 16:23:54;;;;;;;3.75;1.30;;;;;;;19.18;31.95;100695.00;16127500;19;129544;-44
2023/04/21 16:29:16;;;;;;;5.05;1.75;;;;;;;19.15;31.57;100689.97;16125510;19;129075;-43
2023/04/21 16:34:38;;;;;;;6.20;3.00;;;;;;;19.14;31.90;100709.66;16125939;19;131040;-44
2023/04/21 16:40:01;;;;;;;18.02;3.47;;;;;;;19.20;31.95;100703.09;16124573;19;130852;-42
2023/04/21 16:45:22;;;;;;;13.02;3.38;;;;;;;19.48;32.15;100698.50;16124743;19;130563;-42
2023/04/21 16:50:45;;;;;;;9.32;2.60;;;;;;;19.89;32.08;100687.88;16124485;19;131357;-42
2023/04/21 16:56:07;;;;;;;8.38;2.63;;;;;;;20.26;31.69;100692.75;16126056;19;129601;-43
2023/04/21 17:01:29;;;;;;;9.75;2.53;;;;;;;20.54;31.93;100692.69;16125057;19;130361;-43
2023/04/21 17:06:51;;;;;;;9.27;2.78;;;;;;;20.70;31.72;100671.41;16123805;19;130763;-43
2023/04/21 17:12:13;;;;;;;10.43;2.38;;;;;;;20.72;31.58;100666.44;16120646;19;129553;-45
2023/04/21 17:17:40;;;;;;;10.93;2.15;;;;;;;20.74;31.82;100673.38;16118930;19;130302;-47
2023/04/21 17:23:02;;;;;;;7.43;2.40;;;;;;;20.73;32.18;100668.09;16121038;19;131102;-44
2023/04/21 17:28:24;;;;;;;10.43;2.22;;;;;;;20.68;32.30;100659.72;16120863;19;130856;-45
2023/04/21 17:33:46;;;;;;;7.18;1.98;;;;;;;20.64;32.01;100647.47;16119310;19;129465;-44
2023/04/21 17:39:09;;;;;;;8.43;2.00;;;;;;;20.56;32.57;100655.19;16117750;19;129409;-43
2023/04/21 17:44:31;;;;;;;9.18;2.15;;;;;;;20.48;32.80;100639.00;16117933;19;130805;-42
2023/04/21 17:49:53;;;;;;;14.25;1.90;;;;;;;20.39;32.85;100635.06;16116241;19;130820;-42
2023/04/21 17:55:15;;;;;;;6.90;2.03;;;;;;;20.40;32.71;100645.06;16118530;19;129643;-45
2023/04/21 18:00:38;;;;;;;10.50;2.00;;;;;;;20.44;33.13;100647.06;16117494;19;129601;-42
2023/04/21 18:06:00;;;;;;;10.05;2.00;;;;;;;20.41;33.03;100644.78;16118639;19;129894;-41
2023/04/21 18:11:22;;;;;;;7.13;1.50;;;;;;;20.36;33.00;100641.13;16114914;19;129283;-41
2023/04/21 18:16:44;;;;;;;12.70;1.92;;;;;;;20.33;33.23;100653.63;16115792;19;130426;-39
2023/04/21 18:22:09;;;;;;;4.17;1.30;;;;;;;20.40;33.24;100645.06;16110536;19;131367;-42
2023/04/21 18:27:31;;;;;;;5.82;1.40;;;;;;;20.63;32.99;100654.13;16117147;19;130491;-41
2023/04/21 18:32:53;;;;;;;7.57;1.92;;;;;;;20.92;32.67;100657.41;16114369;19;129678;-42
2023/04/21 18:38:15;;;;;;;6.90;1.42;;;;;;;21.13;32.64;100655.59;16114280;19;130509;-39
2023/04/21 18:43:37;;;;;;;7.07;1.50;;;;;;;21.26;32.74;100668.16;16115375;19;129460;-41
2023/04/21 18:48:58;;;;;;;13.90;1.90;;;;;;;21.37;32.86;100694.13;16111453;19;129438;-41
2023/04/21 18:54:20;;;;;;;9.43;1.50;;;;;;;21.47;32.99;100730.34;16116369;19;131722;-42
2023/04/21 18:59:42;;;;;;;11.65;1.88;;;;;;;21.54;32.94;100744.03;16111176;19;129588;-42
2023/04/21 19:05:05;;;;;;;5.63;1.30;;;;;;;21.59;32.61;100746.00;16115060;19;132431;-41
2023/04/21 19:10:33;;;;;;;10.10;1.30;;;;;;;21.56;32.60;100791.94;16111889;19;130981;-42
2023/04/21 19:15:55;;;;;;;18.27;1.88;;;;;;;21.48;33.11;100789.59;16112767;19;129686;-42
2023/04/21 19:21:17;;;;;;;25.30;2.55;;;;;;;21.36;33.17;100776.75;16110069;19;129649;-41
2023/04/21 19:26:39;;;;;;;13.32;2.03;;;;;;;21.26;33.70;100764.72;16124186;19;130999;-40
2023/04/21 19:32:01;;;;;;;14.50;2.30;;;;;;;21.12;33.82;100779.09;16128345;19;129640;-42
2023/04/21 19:37:25;;;;;;;15.10;1.70;;;;;;;21.04;34.53;100780.44;16131039;19;129494;-39
2023/04/21 19:42:46;;;;;;;12.45;1.45;;;;;;;20.96;34.46;100777.28;16123051;19;131636;-42
2023/04/21 19:48:08;;;;;;;8.95;1.77;;;;;;;20.84;34.89;100781.09;16129508;19;131024;-40
2023/04/21 19:53:30;;;;;;;18.23;2.08;;;;;;;20.82;35.18;100788.03;16127623;19;130482;-44
2023/04/21 19:58:52;;;;;;;13.77;2.15;;;;;;;20.76;35.31;100798.28;16126699;19;131825;-39
2023/04/21 20:04:15;;;;;;;18.33;1.67;;;;;;;20.73;35.02;100818.22;16125739;19;129969;-41
2023/04/21 20:09:37;;;;;;;5.88;1.35;;;;;;;20.79;35.17;100810.78;16126436;19;130452;-40
2023/04/21 20:15:00;;;;;;;11.25;1.85;;;;;;;20.92;35.10;100804.81;16123742;19;130859;-39
2023/04/21 20:20:22;;;;;;;14.02;1.30;;;;;;;21.03;34.88;100789.03;16124941;19;129958;-40
2023/04/21 20:25:44;;;;;;;6.38;1.08;;;;;;;21.13;34.88;100783.56;16124184;19;131412;-42
2023/04/21 20:31:06;;;;;;;9.48;2.10;;;;;;;21.14;34.58;100765.75;16121573;19;131081;-39
2023/04/21 20:36:28;;;;;;;11.65;1.80;;;;;;;21.12;34.54;100761.56;16119657;19;130910;-41
2023/04/21 20:41:50;;;;;;;8.63;1.90;;;;;;;21.07;34.94;100762.34;16120554;19;129785;-40
2023/04/21 20:47:32;;;;;;;6.35;1.20;;;;;;;20.98;35.45;100758.41;16122392;19;129775;-41
2023/04/21 20:52:54;;;;;;;10.60;1.50;;;;;;;20.88;36.07;100765.56;16121353;19;130578;-43
2023/04/21 20:58:17;;;;;;;6.80;1.55;;;;;;;20.78;36.68;100754.38;16121295;19;130614;-41
2023/04/21 21:03:39;;;;;;;6.18;1.45;;;;;;;20.69;36.57;100739.22;16117036;19;129644;-45
2023/04/21 21:09:01;;;;;;;3.95;1.45;;;;;;;20.60;37.11;100736.13;16120130;19;131328;-40
2023/04/21 21:14:23;;;;;;;3.42;1.27;;;;;;;20.50;37.31;100736.00;16121578;19;132107;-43
2023/04/21 21:19:46;;;;;;;4.93;1.10;;;;;;;20.42;37.68;100740.13;16119996;19;131107;-41
2023/04/21 21:25:08;;;;;;;4.35;1.42;;;;;;;20.35;37.94;100733.91;16119642;19;131320;-41
2023/04/21 21:30:30;;;;;;;2.38;1.00;;;;;;;20.27;38.28;100735.22;16119281;19;130955;-40
2023/04/21 21:35:52;;;;;;;3.13;1.23;;;;;;;20.20;38.13;100727.09;16119199;19;129599;-40
2023/04/21 21:41:15;;;;;;;3.42;1.10;;;;;;;20.13;38.74;100716.19;16116581;19;129333;-40
2023/04/21 21:46:37;;;;;;;1.40;0.73;;;;;;;20.07;38.70;100717.25;16120225;19;131100;-40
2023/04/21 21:52:00;;;;;;;1.20;0.80;;;;;;;20.03;38.79;100720.84;16123429;19;131840;-43
2023/04/21 21:57:23;;;;;;;6.38;0.98;;;;;;;19.96;39.02;100721.00;16118911;19;129186;-41
2023/04/21 22:02:45;;;;;;;2.10;0.90;;;;;;;19.91;39.07;100713.47;16117689;19;130762;-42
2023/04/21 22:08:07;;;;;;;2.25;0.90;;;;;;;19.88;39.31;100707.59;16117404;19;131480;-40
2023/04/21 22:13:29;;;;;;;3.63;0.70;;;;;;;19.82;39.50;100698.34;16118727;19;129466;-41
2023/04/21 22:18:51;;;;;;;0.95;0.60;;;;;;;19.78;39.68;100713.84;16116290;19;129313;-41
2023/04/21 22:24:13;;;;;;;2.03;1.00;;;;;;;19.74;39.64;100702.44;16116782;19;129746;-41
2023/04/21 22:29:36;;;;;;;3.05;0.70;;;;;;;19.73;40.01;100702.69;16113647;19;129413;-41
2023/04/21 22:35:00;;;;;;;3.42;0.98;;;;;;;19.67;40.00;100707.31;16113988;19;130598;-40
2023/04/21 22:40:21;;;;;;;1.90;0.80;;;;;;;19.63;40.20;100698.69;16114172;19;132106;-42
2023/04/21 22:45:43;;;;;;;1.33;0.60;;;;;;;19.60;40.45;100701.97;16112825;19;129672;-41
2023/04/21 22:51:06;;;;;;;1.48;0.80;;;;;;;19.58;40.41;100714.44;16118817;19;131228;-42
2023/04/21 22:56:29;;;;;;;2.72;0.77;;;;;;;19.53;40.32;100710.50;16114516;19;129315;-43
2023/04/21 23:01:51;;;;;;;0.82;0.60;;;;;;;19.51;40.45;100720.19;16109234;19;129441;-40
2023/04/21 23:07:13;;;;;;;2.47;1.15;;;;;;;19.49;40.24;100719.59;16112945;19;129983;-41
2023/04/21 23:12:35;;;;;;;0.65;0.60;;;;;;;19.47;40.26;100713.44;16111183;19;132160;-40
2023/04/21 23:17:57;;;;;;;0.85;0.55;;;;;;;19.45;40.46;100723.97;16111815;19;129624;-41
2023/04/21 23:23:19;;;;;;;1.30;0.60;;;;;;;19.40;40.31;100712.81;16112028;19;130176;-40
2023/04/21 23:28:41;;;;;;;2.58;0.70;;;;;;;19.38;40.53;100722.22;16113078;19;130125;-43
2023/04/21 23:34:02;;;;;;;1.08;0.77;;;;;;;19.35;40.86;100714.41;16110813;19;130539;-41
2023/04/21 23:39:24;;;;;;;1.48;0.68;;;;;;;19.34;40.59;100703.59;16113545;19;130738;-41
2023/04/21 23:44:46;;;;;;;1.27;0.63;;;;;;;19.30;40.88;100717.13;16113094;19;130167;-41
2023/04/21 23:50:09;;;;;;;0.50;0.50;;;;;;;19.27;40.87;100709.31;16109274;19;130518;-41
2023/04/21 23:55:31;;;;;;;0.70;0.57;;;;;;;19.24;40.54;100707.06;16112850;19;131730;-40
